Time;durP1;ratioP1;P1;durP2;ratioP2;P2;SDS_P1;SDS_P2;PMS_P1;PMS_P2;Temp;Humidity;BMP_temperature;BMP_pressure;BME280_temperature;BME280_humidity;BME280_pressure;Samples;Min_cycle;Max_cycle;Signal;HPM_P1;HPM_P2
2022/05/23 00:02:09;;;;;;;5.07;0.68;;;12.20;93.00;;;;;;5135651;27;19903;-87
2022/05/23 00:04:35;;;;;;;4.75;0.80;;;12.20;93.10;;;;;;5136785;27;20027;-86
2022/05/23 00:07:01;;;;;;;4.30;0.80;;;12.20;93.40;;;;;;5157539;27;20031;-87
2022/05/23 00:09:27;;;;;;;;;;;12.10;93.70;;;;;;5139679;27;20071;-87
2022/05/23 00:11:53;;;;;;;3.95;0.70;;;12.10;94.50;;;;;;5139365;27;19907;-88
2022/05/23 00:14:19;;;;;;;2.17;0.60;;;12.00;95.00;;;;;;5139728;27;20028;-88
2022/05/23 00:16:49;;;;;;;2.75;0.80;;;12.00;95.60;;;;;;5158019;27;20070;-87
2022/05/23 00:19:16;;;;;;;2.60;0.60;;;11.90;95.90;;;;;;5157741;27;20086;-86
2022/05/23 00:21:45;;;;;;;5.65;1.33;;;11.90;95.90;;;;;;5139446;27;20026;-85
2022/05/23 00:24:14;;;;;;;3.00;0.60;;;11.90;95.90;;;;;;5138889;27;20421;-86
2022/05/23 00:26:43;;;;;;;4.07;0.57;;;11.90;96.20;;;;;;5139019;27;20022;-88
2022/05/23 00:29:09;;;;;;;1.48;0.50;;;11.80;96.50;;;;;;5146348;27;20130;-89
2022/05/23 00:31:35;;;;;;;;;;;11.80;96.60;;;;;;5137910;27;20135;-89
2022/05/23 00:36:44;;;;;;;4.43;1.10;;;11.70;97.00;;;;;;5158239;27;20030;-88
2022/05/23 00:39:10;;;;;;;;;;;11.70;97.50;;;;;;5139932;27;20034;-89
2022/05/23 00:44:28;;;;;;;1.38;0.50;;;11.60;97.80;;;;;;5157668;27;20046;-88
2022/05/23 00:47:00;;;;;;;1.58;0.60;;;11.60;98.00;;;;;;5138773;27;20078;-88
2022/05/23 00:49:30;;;;;;;5.47;0.80;;;11.60;98.40;;;;;;5137347;27;20015;-81
2022/05/23 00:51:59;;;;;;;0.98;0.50;;;11.50;99.00;;;;;;5154068;27;20027;-82
2022/05/23 00:54:44;;;;;;;8.45;0.63;;;11.50;99.00;;;;;;5154498;27;20023;-83
2022/05/23 00:57:27;;;;;;;4.32;0.60;;;11.50;99.40;;;;;;5118686;27;20066;-81
2022/05/23 00:59:53;;;;;;;1.38;0.60;;;11.40;99.90;;;;;;5154255;27;20118;-83
2022/05/23 01:02:20;;;;;;;3.55;0.52;;;11.40;99.80;;;;;;5136478;27;20091;-83
2022/05/23 01:04:47;;;;;;;3.10;0.82;;;11.30;99.30;;;;;;5135721;27;20558;-83
2022/05/23 01:07:13;;;;;;;4.40;0.82;;;11.30;99.50;;;;;;5135555;27;20030;-82
2022/05/23 01:09:39;;;;;;;;;;;11.30;99.80;;;;;;5136384;27;20027;-82
2022/05/23 01:12:05;;;;;;;2.45;0.68;;;11.20;99.80;;;;;;5154460;27;19990;-83
2022/05/23 01:14:45;;;;;;;;;;;11.20;99.90;;;;;;5137297;27;20121;-88
2022/05/23 01:17:12;;;;;;;9.35;0.80;;;11.10;99.90;;;;;;5137779;27;19907;-87
2022/05/23 01:19:37;;;;;;;1.08;0.50;;;11.10;99.90;;;;;;5138107;27;20058;-87
2022/05/23 01:22:08;;;;;;;;;;;11.10;99.90;;;;;;5138910;27;20475;-88
2022/05/23 01:24:42;;;;;;;1.70;0.47;;;11.10;99.90;;;;;;5138164;27;19951;-88
2022/05/23 01:27:09;;;;;;;1.67;0.50;;;11.00;99.90;;;;;;5137669;27;20113;-86
2022/05/23 01:29:35;;;;;;;3.30;0.70;;;11.00;99.90;;;;;;5156082;27;20439;-90
2022/05/23 01:32:01;;;;;;;;;;;10.90;99.90;;;;;;5138152;27;20039;-88
2022/05/23 01:34:27;;;;;;;2.38;0.55;;;10.80;99.90;;;;;;5138192;27;19928;-89
2022/05/23 01:36:54;;;;;;;2.33;0.50;;;10.80;99.90;;;;;;5138314;27;20060;-89
2022/05/23 01:39:20;;;;;;;1.15;0.50;;;10.80;99.90;;;;;;5138213;27;20027;-90
2022/05/23 01:41:46;;;;;;;2.08;0.93;;;10.80;99.90;;;;;;5138180;27;20030;-90
2022/05/23 01:44:11;;;;;;;;;;;10.70;99.90;;;;;;5154803;27;20027;-91
2022/05/23 01:46:37;;;;;;;1.50;0.43;;;10.70;99.90;;;;;;5138611;27;19908;-90
2022/05/23 01:49:02;;;;;;;;;;;10.70;99.90;;;;;;5157334;27;20025;-90
2022/05/23 01:51:28;;;;;;;2.30;1.30;;;10.70;99.90;;;;;;5138210;27;19903;-90
2022/05/23 01:53:54;;;;;;;;;;;10.70;99.90;;;;;;5135591;27;20138;-90
2022/05/23 01:56:20;;;;;;;1.60;0.70;;;10.60;99.90;;;;;;5129200;27;20387;-90
2022/05/23 02:01:30;;;;;;;3.00;0.70;;;10.50;99.90;;;;;;5148544;27;20380;-90
2022/05/23 02:03:55;;;;;;;;;;;10.60;99.90;;;;;;5129231;27;20126;-91
2022/05/23 02:06:21;;;;;;;1.70;0.50;;;10.60;99.90;;;;;;5103359;27;19916;-88
2022/05/23 02:08:47;;;;;;;3.72;0.80;;;10.60;99.90;;;;;;5125528;27;20579;-90
2022/05/23 02:11:13;;;;;;;;;;;10.50;99.90;;;;;;5127969;27;20038;-90
2022/05/23 02:13:41;;;;;;;3.22;0.70;;;10.50;99.90;;;;;;5133059;27;19946;-89
2022/05/23 02:16:07;;;;;;;1.98;1.27;;;10.50;99.90;;;;;;5142021;27;20035;-89
2022/05/23 02:18:33;;;;;;;;;;;10.40;99.90;;;;;;5139946;27;20088;-89
2022/05/23 02:20:58;;;;;;;4.53;0.60;;;10.40;99.90;;;;;;5159775;27;19899;-89
2022/05/23 02:23:24;;;;;;;;;;;10.30;99.90;;;;;;5145502;27;20119;-90
2022/05/23 02:25:51;;;;;;;2.70;0.60;;;10.30;99.90;;;;;;5135141;27;19903;-90
2022/05/23 02:28:18;;;;;;;3.45;0.65;;;10.20;99.90;;;;;;5134456;27;20099;-90
2022/05/23 02:30:45;;;;;;;2.85;0.70;;;10.20;99.90;;;;;;5155493;27;20022;-89
2022/05/23 02:33:11;;;;;;;3.15;0.80;;;10.20;99.90;;;;;;5137090;27;20022;-90
2022/05/23 02:35:37;;;;;;;;;;;10.20;99.90;;;;;;5155991;27;20034;-90
2022/05/23 02:38:02;;;;;;;3.58;0.77;;;10.10;99.90;;;;;;5155821;27;19942;-90
2022/05/23 02:40:28;;;;;;;;;;;10.10;99.90;;;;;;5137523;27;20031;-90
2022/05/23 02:42:54;;;;;;;4.00;0.70;;;10.10;99.90;;;;;;5155608;27;19903;-90
2022/05/23 02:45:19;;;;;;;;;;;10.00;99.90;;;;;;5155652;27;20051;-90
2022/05/23 02:47:45;;;;;;;1.88;0.50;;;10.00;99.90;;;;;;5136819;27;19903;-88
2022/05/23 02:50:11;;;;;;;;;;;10.00;99.90;;;;;;5137325;27;20452;-90
2022/05/23 02:52:39;;;;;;;3.15;0.60;;;10.00;99.90;;;;;;5137604;27;19903;-90
2022/05/23 02:55:06;;;;;;;4.45;0.80;;;10.00;99.90;;;;;;5140086;27;20030;-90
2022/05/23 02:57:32;;;;;;;1.50;0.73;;;10.00;99.90;;;;;;5137098;27;20027;-90
2022/05/23 02:59:57;;;;;;;;;;;10.00;99.90;;;;;;5136747;27;20159;-91
2022/05/23 03:05:08;;;;;;;6.80;1.00;;;10.00;99.90;;;;;;5155846;27;20033;-91
2022/05/23 03:07:34;;;;;;;;;;;10.00;99.90;;;;;;5155700;27;20503;-89
2022/05/23 03:10:00;;;;;;;2.70;0.70;;;10.10;99.90;;;;;;5136704;27;19907;-90
2022/05/23 03:12:27;;;;;;;;;;;10.00;99.90;;;;;;5137563;27;20019;-88
2022/05/23 03:14:52;;;;;;;8.07;1.10;;;10.10;99.90;;;;;;5137429;27;19903;-90
2022/05/23 03:17:18;;;;;;;;;;;10.10;99.90;;;;;;5137282;27;20037;-90
2022/05/23 03:19:44;;;;;;;2.05;0.88;;;10.10;99.90;;;;;;5135928;27;19915;-91
2022/05/23 03:27:38;;;;;;;7.10;0.98;;;10.10;99.90;;;;;;5154852;27;20107;-90
2022/05/23 03:30:05;;;;;;;;;;;10.10;99.90;;;;;;5138169;27;20027;-90
2022/05/23 03:32:31;;;;;;;2.95;0.70;;;10.10;99.90;;;;;;5136559;27;19907;-90
2022/05/23 03:34:57;;;;;;;6.28;1.00;;;10.20;99.90;;;;;;5136407;27;20122;-89
2022/05/23 03:37:23;;;;;;;;;;;10.30;99.90;;;;;;5136878;27;20896;-89
2022/05/23 03:39:49;;;;;;;8.07;2.40;;;10.30;99.90;;;;;;5139491;27;20264;-90
2022/05/23 03:42:14;;;;;;;;;;;10.40;99.90;;;;;;5140696;27;20321;-90
2022/05/23 03:44:40;;;;;;;6.93;2.00;;;10.50;99.90;;;;;;5140015;27;19903;-89
2022/05/23 03:47:06;;;;;;;;;;;10.50;99.90;;;;;;5139361;27;20026;-88
2022/05/23 03:49:32;;;;;;;4.07;1.50;;;10.60;99.90;;;;;;5139148;27;19922;-89
2022/05/23 03:51:59;;;;;;;7.85;0.88;;;10.70;99.90;;;;;;5140838;27;20046;-89
2022/05/23 03:54:25;;;;;;;4.50;1.55;;;10.70;99.90;;;;;;5140082;27;20030;-89
2022/05/23 03:56:50;;;;;;;;;;;10.90;99.90;;;;;;5140651;27;20019;-91
2022/05/23 03:59:16;;;;;;;2.90;0.88;;;11.10;99.90;;;;;;5140418;27;19934;-89
2022/05/23 04:01:41;;;;;;;;;;;11.20;99.90;;;;;;5159570;27;20027;-90
2022/05/23 04:04:07;;;;;;;5.88;1.67;;;11.40;99.90;;;;;;5140837;27;19903;-89
2022/05/23 04:06:35;;;;;;;;;;;11.60;99.90;;;;;;5140885;27;20113;-89
2022/05/23 04:09:00;;;;;;;;;;;11.70;99.90;;;;;;5141319;27;19903;-89
2022/05/23 04:11:26;;;;;;;2.40;0.70;;;11.90;99.90;;;;;;5141666;27;20365;-90
2022/05/23 04:13:52;;;;;;;;;;;12.00;99.90;;;;;;5151094;27;20006;-91
2022/05/23 04:16:18;;;;;;;4.93;0.73;;;12.20;99.90;;;;;;5140922;27;19903;-91
2022/05/23 04:18:43;;;;;;;;;;;12.40;99.90;;;;;;5140995;27;20077;-90
2022/05/23 04:21:09;;;;;;;3.38;0.60;;;12.50;99.90;;;;;;5140504;27;20447;-90
2022/05/23 04:23:35;;;;;;;;;;;12.80;99.90;;;;;;5140107;27;20053;-90
2022/05/23 04:26:06;;;;;;;10.43;1.83;;;13.10;99.90;;;;;;5140584;27;19907;-91
2022/05/23 04:28:33;;;;;;;1.92;0.40;;;13.50;99.90;;;;;;5139550;27;20573;-90
2022/05/23 04:30:59;;;;;;;3.85;0.70;;;13.60;99.90;;;;;;5141418;27;20531;-89
2022/05/23 04:36:09;;;;;;;3.60;0.60;;;13.80;99.50;;;;;;5159737;27;20041;-91
2022/05/23 04:38:35;;;;;;;;;;;13.90;99.50;;;;;;5139801;27;20023;-90
2022/05/23 04:41:00;;;;;;;2.78;0.80;;;14.00;99.10;;;;;;5139698;27;19926;-89
2022/05/23 04:43:26;;;;;;;;;;;14.10;99.00;;;;;;5140208;27;20019;-91
2022/05/23 04:45:52;;;;;;;3.05;0.90;;;14.20;98.90;;;;;;5157165;27;19903;-90
2022/05/23 04:51:02;;;;;;;3.47;0.50;;;14.60;99.10;;;;;;5157161;27;19913;-90
2022/05/23 04:53:27;;;;;;;;;;;14.90;98.10;;;;;;5159891;27;20109;-90
2022/05/23 04:55:54;;;;;;;6.05;0.60;;;15.20;97.30;;;;;;5139101;27;19965;-91
2022/05/23 04:58:20;;;;;;;5.28;0.70;;;15.40;97.10;;;;;;5139605;27;20075;-90
2022/05/23 05:00:45;;;;;;;;;;;15.60;96.70;;;;;;5138972;27;20027;-90
2022/05/23 05:03:12;;;;;;;6.70;0.70;;;15.80;95.80;;;;;;5157537;27;19918;-90
2022/05/23 05:05:37;;;;;;;5.28;1.08;;;16.00;95.80;;;;;;5139143;27;20023;-91
2022/05/23 05:08:04;;;;;;;4.15;1.00;;;16.20;95.20;;;;;;5138946;27;20026;-90
2022/05/23 05:10:30;;;;;;;3.67;0.88;;;16.40;94.40;;;;;;5138979;27;20470;-90
2022/05/23 05:12:57;;;;;;;3.28;0.55;;;16.70;93.50;;;;;;5139247;27;20019;-89
2022/05/23 05:15:24;;;;;;;2.97;0.68;;;17.20;91.80;;;;;;5157084;27;20905;-90
2022/05/23 05:17:50;;;;;;;3.35;0.60;;;17.40;88.40;;;;;;5138264;27;20075;-91
2022/05/23 05:20:18;;;;;;;5.38;0.60;;;17.60;84.30;;;;;;5138276;27;20038;-90
2022/05/23 05:22:44;;;;;;;3.53;0.80;;;17.70;79.70;;;;;;5138434;27;20011;-90
2022/05/23 05:25:12;;;;;;;3.53;0.68;;;17.90;76.10;;;;;;5151258;27;20031;-90
2022/05/23 05:27:38;;;;;;;6.10;0.70;;;18.00;75.20;;;;;;5158528;27;20058;-90
2022/05/23 05:30:06;;;;;;;6.35;0.93;;;18.20;72.70;;;;;;5162123;27;20185;-91
2022/05/23 05:32:44;;;;;;;3.08;0.47;;;18.30;70.80;;;;;;5138380;27;20022;-90
2022/05/23 05:35:35;;;;;;;2.58;0.70;;;18.40;69.30;;;;;;5138101;27;20376;-90
2022/05/23 05:38:27;;;;;;;3.83;0.75;;;18.50;68.20;;;;;;5138128;27;20029;-91
2022/05/23 05:41:03;;;;;;;4.50;0.90;;;18.80;67.70;;;;;;5126926;27;20043;-90
2022/05/23 05:43:30;;;;;;;;;;;18.90;66.20;;;;;;5138819;27;20019;-91
2022/05/23 05:46:01;;;;;;;2.08;0.60;;;19.00;64.30;;;;;;5156697;27;20012;-91
2022/05/23 05:48:28;;;;;;;5.93;0.95;;;19.50;64.30;;;;;;5138007;27;20019;-90
2022/05/23 05:50:54;;;;;;;2.53;0.50;;;20.30;61.30;;;;;;5137090;27;20103;-91
2022/05/23 05:53:28;;;;;;;9.48;0.60;;;21.10;55.90;;;;;;5135846;27;20026;-90
2022/05/23 05:55:54;;;;;;;5.47;1.05;;;22.10;52.00;;;;;;5137024;27;20027;-91
2022/05/23 05:58:19;;;;;;;3.10;0.80;;;23.10;48.10;;;;;;5137421;27;20573;-90
2022/05/23 06:00:45;;;;;;;2.67;0.63;;;23.90;44.90;;;;;;5137496;27;20455;-90
2022/05/23 06:03:11;;;;;;;2.63;0.70;;;24.60;41.20;;;;;;5136921;27;20117;-91
2022/05/23 06:11:24;;;;;;;4.45;1.02;;;27.50;34.50;;;;;;5156024;27;20038;-88
2022/05/23 06:13:52;;;;;;;5.45;1.20;;;28.10;32.50;;;;;;5155381;27;20522;-89
2022/05/23 06:16:18;;;;;;;7.40;0.88;;;28.40;31.20;;;;;;5136422;27;20049;-89
2022/05/23 06:18:44;;;;;;;1.83;0.70;;;28.80;30.10;;;;;;5137108;27;20027;-90
2022/05/23 06:21:10;;;;;;;4.72;1.38;;;29.30;29.30;;;;;;5136947;27;20513;-89
2022/05/23 06:23:36;;;;;;;3.65;0.98;;;29.50;29.00;;;;;;5136816;27;20030;-88
2022/05/23 06:26:02;;;;;;;3.85;0.70;;;29.80;28.60;;;;;;5154844;27;20026;-89
2022/05/23 06:28:28;;;;;;;5.43;0.98;;;30.10;27.40;;;;;;5154674;27;20074;-91
2022/05/23 06:30:57;;;;;;;5.32;1.38;;;29.70;27.80;;;;;;5136528;27;20029;-90
2022/05/23 06:33:24;;;;;;;4.10;0.95;;;29.80;27.60;;;;;;5137061;27;20126;-90
2022/05/23 06:35:50;;;;;;;3.35;0.98;;;30.10;27.10;;;;;;5137016;27;20468;-90
2022/05/23 06:38:16;;;;;;;4.28;1.25;;;30.10;27.10;;;;;;5155083;27;20023;-89
2022/05/23 06:40:42;;;;;;;4.18;1.30;;;29.90;26.70;;;;;;5137343;27;20570;-90
2022/05/23 06:43:08;;;;;;;2.67;0.85;;;29.90;26.70;;;;;;5136892;27;20467;-91
2022/05/23 06:45:34;;;;;;;3.15;0.93;;;29.50;26.90;;;;;;5137004;27;20025;-90
2022/05/23 06:48:00;;;;;;;3.13;0.80;;;29.90;26.60;;;;;;5136164;27;20075;-88
2022/05/23 06:50:26;;;;;;;2.42;0.90;;;29.80;26.30;;;;;;5138245;27;20038;-89
2022/05/23 06:52:52;;;;;;;4.57;0.93;;;29.50;26.60;;;;;;5137431;27;20029;-90
2022/05/23 06:55:17;;;;;;;7.68;1.20;;;29.70;26.70;;;;;;5155037;27;20038;-89
2022/05/23 06:57:43;;;;;;;12.43;1.45;;;29.90;27.30;;;;;;5136211;27;20380;-88
2022/05/23 07:00:10;;;;;;;5.90;1.15;;;30.30;26.60;;;;;;5136435;27;20034;-88
2022/05/23 07:02:36;;;;;;;1.92;0.70;;;30.30;27.00;;;;;;5135990;27;20019;-89
2022/05/23 07:13:16;;;;;;;6.20;0.80;;;31.00;25.60;;;;;;5155453;27;20026;-88
2022/05/23 07:15:47;;;;;;;7.13;0.93;;;30.40;25.90;;;;;;5140608;27;20030;-89
2022/05/23 07:18:17;;;;;;;2.17;0.73;;;30.50;25.80;;;;;;5159154;27;20015;-87
2022/05/23 07:20:43;;;;;;;2.45;0.80;;;30.50;25.60;;;;;;5158967;27;20039;-88
2022/05/23 07:23:10;;;;;;;3.25;0.80;;;30.40;25.90;;;;;;5140696;27;20487;-87
2022/05/23 07:25:36;;;;;;;5.47;1.08;;;30.30;26.10;;;;;;5140391;27;20030;-90
2022/05/23 07:28:02;;;;;;;3.30;1.17;;;30.30;26.40;;;;;;5140275;27;20046;-90
2022/05/23 07:30:28;;;;;;;4.35;0.98;;;30.30;26.20;;;;;;5140807;27;20026;-90
2022/05/23 07:32:54;;;;;;;10.85;0.82;;;30.60;25.80;;;;;;5140196;27;20038;-89
2022/05/23 07:35:20;;;;;;;4.63;0.93;;;30.40;26.20;;;;;;5140234;27;20073;-88
2022/05/23 07:37:46;;;;;;;2.90;0.70;;;30.40;26.20;;;;;;5139863;27;20023;-88
2022/05/23 07:40:12;;;;;;;3.25;1.13;;;30.70;26.10;;;;;;5140511;27;20038;-88
2022/05/23 07:42:38;;;;;;;2.33;0.70;;;30.80;25.60;;;;;;5140143;27;20418;-89
2022/05/23 07:45:06;;;;;;;1.80;0.82;;;30.70;25.40;;;;;;5140189;27;20038;-89
2022/05/23 07:47:31;;;;;;;4.13;0.80;;;30.50;25.70;;;;;;5140313;27;20079;-88
2022/05/23 07:49:57;;;;;;;2.60;0.70;;;30.50;25.50;;;;;;5139771;27;20027;-90
2022/05/23 07:52:23;;;;;;;6.03;1.42;;;30.60;25.70;;;;;;5140175;27;20045;-88
2022/05/23 08:02:53;;;;;;;4.05;0.95;;;30.80;25.80;;;;;;5158009;27;20452;-89
2022/05/23 08:05:19;;;;;;;2.03;0.75;;;31.00;25.70;;;;;;5140500;27;20047;-87
2022/05/23 08:07:45;;;;;;;2.53;0.93;;;31.20;25.70;;;;;;5140781;27;20058;-89
2022/05/23 08:10:11;;;;;;;3.85;0.80;;;31.00;25.20;;;;;;5158179;27;20042;-90
2022/05/23 08:12:38;;;;;;;6.72;1.13;;;30.60;25.10;;;;;;5158768;27;20026;-88
2022/05/23 08:15:04;;;;;;;2.20;0.85;;;30.60;25.60;;;;;;5141117;27;20031;-89
2022/05/23 08:17:30;;;;;;;6.30;1.00;;;30.80;25.50;;;;;;5140594;27;20072;-90
2022/05/23 08:19:56;;;;;;;2.22;0.77;;;31.00;24.90;;;;;;5159361;27;20038;-89
2022/05/23 08:22:22;;;;;;;3.20;0.77;;;31.40;25.00;;;;;;5159989;27;20528;-85
2022/05/23 08:24:49;;;;;;;4.25;1.00;;;31.40;25.20;;;;;;5141810;27;20034;-89
2022/05/23 08:27:15;;;;;;;5.20;1.10;;;31.00;25.20;;;;;;5141421;27;20399;-89
2022/05/23 08:29:40;;;;;;;10.32;1.00;;;30.90;25.70;;;;;;5142760;27;20023;-91
2022/05/23 08:32:09;;;;;;;8.75;0.93;;;30.80;25.90;;;;;;5162586;27;20015;-87
2022/05/23 08:34:35;;;;;;;5.93;1.08;;;30.70;25.30;;;;;;5159679;27;20031;-89
2022/05/23 08:37:01;;;;;;;5.38;0.90;;;30.90;25.80;;;;;;5143065;27;20094;-88
2022/05/23 08:39:27;;;;;;;3.38;0.70;;;30.90;25.20;;;;;;5142011;27;20054;-88
2022/05/23 08:41:53;;;;;;;3.33;0.90;;;30.90;24.90;;;;;;5138540;27;20083;-89
2022/05/23 08:44:48;;;;;;;4.03;1.20;;;30.90;24.40;;;;;;5138905;27;20019;-87
2022/05/23 08:47:34;;;;;;;3.13;0.70;;;30.90;24.40;;;;;;5139255;27;20022;-89
2022/05/23 08:50:15;;;;;;;7.22;0.90;;;30.60;24.40;;;;;;5136771;27;20035;-87
2022/05/23 08:52:57;;;;;;;2.55;0.63;;;30.40;24.20;;;;;;5137319;27;20019;-89
2022/05/23 08:55:40;;;;;;;8.18;1.10;;;30.10;25.40;;;;;;5139572;27;20972;-89
2022/05/23 08:58:32;;;;;;;3.60;0.80;;;30.10;24.20;;;;;;5139767;27;20471;-88
2022/05/23 09:01:26;;;;;;;1.58;0.70;;;30.30;25.00;;;;;;5137372;27;20038;-88
2022/05/23 09:04:00;;;;;;;3.22;0.70;;;30.80;24.00;;;;;;5135194;27;20031;-88
2022/05/23 09:06:31;;;;;;;2.60;0.77;;;31.10;24.10;;;;;;5138322;27;20118;-88
2022/05/23 09:09:09;;;;;;;4.93;1.00;;;31.00;23.80;;;;;;5138502;27;20102;-88
2022/05/23 09:11:39;;;;;;;5.25;0.77;;;31.30;23.90;;;;;;5137815;27;20026;-88
2022/05/23 09:14:07;;;;;;;2.45;0.90;;;31.30;23.70;;;;;;5137608;27;20372;-87
2022/05/23 09:16:40;;;;;;;6.72;1.00;;;31.60;23.60;;;;;;5138642;27;20057;-87
2022/05/23 09:19:15;;;;;;;3.00;0.75;;;31.20;23.80;;;;;;5137819;27;20110;-88
2022/05/23 09:24:30;;;;;;;2.15;0.63;;;31.50;23.90;;;;;;5156450;27;20034;-88
2022/05/23 09:27:05;;;;;;;4.00;1.20;;;31.10;23.90;;;;;;5137794;27;20034;-87
2022/05/23 09:29:31;;;;;;;1.60;0.60;;;30.60;23.60;;;;;;5156427;27;20046;-87
2022/05/23 09:32:07;;;;;;;4.03;0.80;;;30.20;24.00;;;;;;5136883;27;20018;-86
2022/05/23 09:34:45;;;;;;;3.45;0.82;;;30.50;23.30;;;;;;5137932;27;20126;-86
2022/05/23 09:37:30;;;;;;;1.88;0.80;;;30.90;23.00;;;;;;5155495;27;20022;-87
2022/05/23 09:39:59;;;;;;;3.35;0.85;;;31.10;22.80;;;;;;5136970;27;20046;-87
2022/05/23 09:48:34;;;;;;;3.08;0.90;;;31.30;22.80;;;;;;5071880;28;20032;-88
2022/05/23 09:51:05;;;;;;;2.58;0.63;;;31.40;23.30;;;;;;5058137;28;20040;-87
2022/05/23 09:53:53;;;;;;;2.83;0.85;;;31.80;22.90;;;;;;5086590;27;20499;-86
2022/05/23 09:56:39;;;;;;;3.13;0.70;;;31.60;22.60;;;;;;5153173;27;20086;-88
2022/05/23 09:59:37;;;;;;;3.13;1.05;;;31.30;23.00;;;;;;5135612;27;20030;-87
2022/05/23 10:02:31;;;;;;;3.17;0.80;;;30.60;23.10;;;;;;5077581;27;20050;-85
2022/05/23 10:04:57;;;;;;;1.65;0.60;;;30.10;23.20;;;;;;5133924;27;20024;-87
2022/05/23 10:07:23;;;;;;;2.95;0.60;;;29.60;23.00;;;;;;5136267;27;20027;-86
2022/05/23 10:10:19;;;;;;;2.13;0.65;;;29.30;23.50;;;;;;5136738;27;20019;-87
2022/05/23 10:12:45;;;;;;;2.60;0.85;;;28.90;23.50;;;;;;5136363;27;20052;-85
2022/05/23 10:15:13;;;;;;;2.70;0.60;;;28.70;24.40;;;;;;5136996;27;20022;-86
2022/05/23 10:17:41;;;;;;;2.53;0.77;;;28.60;24.50;;;;;;5137174;27;20083;-86
2022/05/23 10:20:29;;;;;;;2.15;0.50;;;28.50;23.50;;;;;;5136715;27;20030;-86
2022/05/23 10:23:04;;;;;;;2.00;0.70;;;28.10;23.90;;;;;;5136987;27;20033;-86
2022/05/23 10:25:38;;;;;;;4.15;0.50;;;28.00;23.80;;;;;;5154496;27;20102;-85
2022/05/23 10:28:14;;;;;;;2.03;0.80;;;27.80;23.90;;;;;;5136242;27;20122;-85
2022/05/23 10:30:48;;;;;;;3.35;0.60;;;27.80;24.10;;;;;;5136626;27;20083;-84
2022/05/23 10:33:14;;;;;;;1.20;0.45;;;27.80;24.20;;;;;;5154985;27;20022;-85
2022/05/23 10:36:08;;;;;;;1.17;0.50;;;27.70;23.40;;;;;;5155313;27;20015;-86
2022/05/23 10:42:09;;;;;;;1.90;0.88;;;27.00;23.20;;;;;;5154816;27;20452;-86
2022/05/23 10:44:49;;;;;;;2.22;0.50;;;26.70;24.60;;;;;;5073969;28;20024;-85
2022/05/23 10:47:34;;;;;;;6.57;0.40;;;26.80;23.90;;;;;;5119310;27;20042;-84
2022/05/23 10:50:03;;;;;;;3.42;0.43;;;26.70;24.50;;;;;;5135711;27;20364;-86
2022/05/23 10:52:55;;;;;;;1.75;0.60;;;26.60;25.40;;;;;;5124390;27;20050;-84
2022/05/23 10:56:02;;;;;;;1.88;0.55;;;26.50;24.60;;;;;;5134882;27;20027;-85
2022/05/23 10:58:47;;;;;;;3.80;0.55;;;26.50;23.90;;;;;;5154174;27;20047;-85
2022/05/23 11:01:47;;;;;;;2.13;0.85;;;26.40;24.60;;;;;;5154156;27;20031;-86
2022/05/23 11:04:38;;;;;;;0.45;0.30;;;26.30;24.10;;;;;;5136330;27;20049;-85
2022/05/23 11:07:04;;;;;;;1.25;0.50;;;26.40;24.60;;;;;;5154468;27;20025;-86
2022/05/23 11:09:48;;;;;;;2.63;0.52;;;26.60;23.70;;;;;;5135866;27;20026;-83
2022/05/23 11:12:29;;;;;;;2.10;0.50;;;26.60;23.10;;;;;;5135768;27;20110;-84
2022/05/23 11:15:07;;;;;;;1.95;0.40;;;26.70;22.80;;;;;;5135950;27;20018;-85
2022/05/23 11:17:56;;;;;;;5.63;0.50;;;26.80;24.00;;;;;;5135841;27;20449;-85
2022/05/23 11:20:32;;;;;;;1.42;0.40;;;26.80;23.50;;;;;;5135861;27;20039;-86
2022/05/23 11:23:34;;;;;;;2.05;0.45;;;26.90;23.10;;;;;;5136320;27;20025;-85
2022/05/23 11:26:23;;;;;;;1.63;0.40;;;27.00;23.00;;;;;;5135533;27;20026;-85
2022/05/23 11:34:42;;;;;;;1.27;0.40;;;27.10;23.40;;;;;;5152296;27;20033;-86
2022/05/23 11:39:52;;;;;;;2.45;0.47;;;27.00;23.50;;;;;;5162452;27;20129;-86
2022/05/23 11:42:32;;;;;;;1.27;0.38;;;27.10;23.90;;;;;;5136122;27;20018;-86
2022/05/23 11:47:59;;;;;;;2.17;0.40;;;26.80;22.70;;;;;;5153731;27;20033;-86
2022/05/23 11:50:31;;;;;;;3.13;0.50;;;26.70;23.00;;;;;;5154036;27;20035;-86
2022/05/23 11:53:23;;;;;;;1.65;0.63;;;26.60;23.90;;;;;;5135840;27;20030;-86
2022/05/23 11:55:55;;;;;;;1.15;0.40;;;26.90;23.90;;;;;;5135229;27;20034;-86
2022/05/23 11:58:42;;;;;;;1.00;0.38;;;27.00;23.40;;;;;;5135599;27;20019;-85
2022/05/23 12:01:10;;;;;;;1.77;0.40;;;26.90;23.60;;;;;;5155320;27;20045;-86
2022/05/23 12:03:52;;;;;;;2.38;0.40;;;26.90;24.20;;;;;;5138118;27;20049;-85
2022/05/23 12:06:23;;;;;;;1.92;0.30;;;26.90;23.70;;;;;;5157328;27;20497;-85
2022/05/23 12:09:23;;;;;;;1.33;0.40;;;27.10;23.50;;;;;;5157334;27;20063;-84
2022/05/23 12:12:12;;;;;;;2.20;0.60;;;27.00;23.90;;;;;;5139208;27;20031;-85
2022/05/23 12:14:38;;;;;;;1.23;0.40;;;27.00;23.90;;;;;;5138854;27;20018;-86
2022/05/23 12:17:12;;;;;;;1.20;0.50;;;27.00;24.00;;;;;;5138793;27;20034;-85
2022/05/23 12:19:41;;;;;;;2.95;0.47;;;26.80;22.50;;;;;;5138538;27;20034;-84
2022/05/23 12:22:19;;;;;;;2.20;0.77;;;26.30;23.20;;;;;;5138692;27;20033;-84
2022/05/23 12:25:07;;;;;;;2.72;0.57;;;26.20;24.60;;;;;;5157105;27;20025;-85
2022/05/23 12:27:58;;;;;;;1.17;0.60;;;26.00;23.80;;;;;;5138581;27;20025;-85
2022/05/23 12:30:27;;;;;;;1.23;0.40;;;25.80;24.20;;;;;;5139121;27;20110;-86
2022/05/23 12:33:04;;;;;;;1.75;0.40;;;25.80;23.80;;;;;;5138163;27;20030;-84
2022/05/23 12:35:32;;;;;;;0.95;0.50;;;26.00;23.40;;;;;;5138437;27;20022;-85
2022/05/23 12:38:15;;;;;;;0.90;0.40;;;26.30;23.70;;;;;;5156996;27;20099;-84
2022/05/23 12:41:17;;;;;;;1.75;0.60;;;26.50;23.60;;;;;;5156786;27;20567;-85
2022/05/23 12:44:01;;;;;;;1.33;0.50;;;26.80;22.80;;;;;;5156485;27;20026;-84
2022/05/23 12:46:48;;;;;;;0.88;0.35;;;26.90;23.40;;;;;;5156868;27;20026;-86
2022/05/23 12:49:32;;;;;;;1.05;0.60;;;26.80;22.30;;;;;;5087131;27;20027;-85
2022/05/23 12:52:00;;;;;;;3.47;0.70;;;26.50;23.00;;;;;;5138198;27;20121;-85
2022/05/23 12:54:43;;;;;;;1.60;0.65;;;26.80;23.30;;;;;;5138256;27;20023;-86
2022/05/23 12:57:34;;;;;;;1.10;0.60;;;26.90;23.20;;;;;;5135341;27;20066;-85
2022/05/23 13:00:05;;;;;;;1.15;0.50;;;27.10;23.80;;;;;;5156280;27;20019;-87
2022/05/23 13:03:02;;;;;;;2.15;0.63;;;27.30;23.10;;;;;;5138239;27;20026;-87
2022/05/23 13:06:11;;;;;;;0.80;0.40;;;27.50;22.30;;;;;;5136682;27;20506;-86
2022/05/23 13:09:09;;;;;;;1.45;0.60;;;27.60;22.60;;;;;;5142556;27;20038;-85
2022/05/23 13:11:41;;;;;;;1.27;0.68;;;27.60;22.40;;;;;;5137730;27;20023;-86
2022/05/23 13:14:07;;;;;;;2.42;0.47;;;27.60;22.20;;;;;;5137617;27;20062;-85
2022/05/23 13:16:38;;;;;;;0.80;0.40;;;27.50;22.50;;;;;;5138408;27;20022;-86
2022/05/23 13:22:12;;;;;;;0.68;0.40;;;27.40;22.80;;;;;;5156805;27;20087;-86
2022/05/23 13:24:54;;;;;;;1.83;0.40;;;27.20;22.60;;;;;;5137745;27;20067;-85
2022/05/23 13:27:26;;;;;;;2.30;0.50;;;27.10;22.40;;;;;;5137441;27;20498;-86
2022/05/23 13:30:03;;;;;;;2.10;0.63;;;27.00;22.70;;;;;;5137226;27;20054;-86
2022/05/23 13:32:29;;;;;;;2.63;0.40;;;26.60;21.60;;;;;;5136743;27;20019;-86
2022/05/23 13:34:59;;;;;;;0.68;0.38;;;26.40;22.80;;;;;;5157874;27;20027;-86
2022/05/23 13:37:34;;;;;;;1.80;0.57;;;26.30;22.80;;;;;;5137004;27;20050;-87
2022/05/23 13:40:11;;;;;;;1.17;0.45;;;26.20;23.00;;;;;;5136703;27;20039;-86
2022/05/23 13:42:36;;;;;;;2.10;0.57;;;26.30;22.80;;;;;;5137315;27;20030;-85
2022/05/23 13:45:18;;;;;;;1.25;0.43;;;26.30;23.30;;;;;;5155349;27;20023;-85
2022/05/23 13:47:54;;;;;;;0.95;0.45;;;26.40;23.30;;;;;;5137061;27;20570;-86
2022/05/23 13:50:27;;;;;;;5.32;0.50;;;26.30;22.80;;;;;;5155685;27;20098;-86
2022/05/23 13:53:02;;;;;;;2.95;0.50;;;26.40;22.70;;;;;;5137508;27;20033;-86
2022/05/23 13:55:34;;;;;;;1.02;0.40;;;26.40;22.70;;;;;;5133733;27;20445;-86
2022/05/23 13:58:22;;;;;;;1.63;0.30;;;26.30;23.30;;;;;;5129537;27;20493;-87
2022/05/23 14:00:59;;;;;;;3.63;0.40;;;26.40;23.20;;;;;;5138290;27;20042;-86
2022/05/23 14:03:28;;;;;;;1.00;0.43;;;26.30;23.00;;;;;;5135292;27;20054;-85
2022/05/23 14:05:55;;;;;;;1.48;0.43;;;26.30;23.30;;;;;;5134463;27;20026;-87
2022/05/23 14:08:33;;;;;;;4.20;0.50;;;26.30;23.50;;;;;;5136128;27;20046;-87
2022/05/23 14:11:06;;;;;;;1.60;0.40;;;26.40;23.20;;;;;;5136960;27;20493;-86
2022/05/23 14:13:33;;;;;;;4.47;0.43;;;26.40;22.80;;;;;;5136607;27;20379;-86
2022/05/23 14:16:01;;;;;;;2.35;0.32;;;26.40;23.20;;;;;;5137101;27;20019;-87
2022/05/23 14:18:34;;;;;;;1.42;0.40;;;26.40;23.50;;;;;;5135690;27;20035;-86
2022/05/23 14:21:00;;;;;;;1.42;0.40;;;26.30;23.40;;;;;;5134600;27;20129;-87
2022/05/23 14:23:33;;;;;;;6.00;0.47;;;26.40;22.20;;;;;;5135623;27;20071;-86
2022/05/23 14:25:58;;;;;;;0.73;0.30;;;26.20;22.80;;;;;;5155283;27;20023;-86
2022/05/23 14:28:29;;;;;;;1.15;0.40;;;26.20;23.30;;;;;;5155142;27;20094;-86